RYR2343 EKCH-EPKK
Flight info
| Callsign | RYR2343 |
|---|---|
| Flight time | 1h 5m |
| Altitude | 37000 |
| Route | SIMEG Z493 XELOL DCT ADVAB L623 UWLER |
| Aircraft | B38M/M-SDE1FGHILORVWXY/HB1 |
Departure
| Time | 2026-04-24 19:13 |
|---|---|
| Airport | Copenhagen Kastrup Airport (EKCH) |
Arrival
| Time | 2026-04-24 20:19 |
|---|---|
| Airport | Kraków John Paul II International Airport (EPKK) |
| Time | Latitude | Longitude | Altitude | Speed | Heading |
|---|---|---|---|---|---|
| 2026-04-24 18:54 | 55.62511 | 12.65840 | 19 ft | 0 kts | 359° |
| 2026-04-24 19:01 | 55.62500 | 12.65840 | 19 ft | 2 kts | 359° |
| 2026-04-24 19:01 | 55.62483 | 12.65841 | 19 ft | 2 kts | 358° |
| 2026-04-24 19:01 | 55.62467 | 12.65842 | 21 ft | 2 kts | 356° |
| 2026-04-24 19:02 | 55.62456 | 12.65844 | 21 ft | 2 kts | 349° |
| 2026-04-24 19:02 | 55.62445 | 12.65861 | 21 ft | 0 kts | 266° |
| 2026-04-24 19:05 | 55.62445 | 12.65858 | 20 ft | 2 kts | 266° |
| 2026-04-24 19:06 | 55.62444 | 12.65815 | 19 ft | 2 kts | 268° |
| 2026-04-24 19:06 | 55.62443 | 12.65772 | 19 ft | 6 kts | 268° |
| 2026-04-24 19:06 | 55.62441 | 12.65653 | 19 ft | 14 kts | 268° |
| 2026-04-24 19:06 | 55.62439 | 12.65460 | 19 ft | 17 kts | 269° |
| 2026-04-24 19:07 | 55.62437 | 12.65310 | 19 ft | 8 kts | 269° |
| 2026-04-24 19:07 | 55.62414 | 12.65210 | 19 ft | 9 kts | 210° |
| 2026-04-24 19:07 | 55.62374 | 12.65204 | 19 ft | 10 kts | 180° |
| 2026-04-24 19:07 | 55.62267 | 12.65202 | 19 ft | 13 kts | 181° |
| 2026-04-24 19:08 | 55.62184 | 12.65154 | 22 ft | 13 kts | 212° |
| 2026-04-24 19:08 | 55.62102 | 12.65060 | 20 ft | 15 kts | 212° |
| 2026-04-24 19:08 | 55.62006 | 12.64948 | 20 ft | 18 kts | 213° |
| 2026-04-24 19:08 | 55.61902 | 12.64826 | 19 ft | 19 kts | 213° |
| 2026-04-24 19:09 | 55.61784 | 12.64692 | 19 ft | 21 kts | 213° |
| 2026-04-24 19:09 | 55.61654 | 12.64544 | 20 ft | 23 kts | 213° |
| 2026-04-24 19:09 | 55.61519 | 12.64387 | 19 ft | 23 kts | 213° |
| 2026-04-24 19:09 | 55.61381 | 12.64230 | 20 ft | 24 kts | 213° |
| 2026-04-24 19:10 | 55.61238 | 12.64063 | 19 ft | 26 kts | 214° |
| 2026-04-24 19:10 | 55.61089 | 12.63893 | 19 ft | 25 kts | 211° |
| 2026-04-24 19:10 | 55.60994 | 12.63789 | 19 ft | 24 kts | 212° |
| 2026-04-24 19:11 | 55.60876 | 12.63651 | 20 ft | 19 kts | 213° |
| 2026-04-24 19:11 | 55.60814 | 12.63591 | 19 ft | 0 kts | 189° |
| 2026-04-24 19:11 | 55.60801 | 12.63589 | 19 ft | 4 kts | 184° |
| 2026-04-24 19:11 | 55.60771 | 12.63618 | 19 ft | 6 kts | 134° |
| 2026-04-24 19:12 | 55.60735 | 12.63690 | 19 ft | 9 kts | 134° |
| 2026-04-24 19:12 | 55.60692 | 12.63787 | 20 ft | 11 kts | 109° |
| 2026-04-24 19:12 | 55.60706 | 12.63917 | 23 ft | 12 kts | 48° |
| 2026-04-24 19:12 | 55.60781 | 12.64031 | 22 ft | 24 kts | 41° |
| 2026-04-24 19:13 | 55.60966 | 12.64316 | 20 ft | 83 kts | 40° |
| 2026-04-24 19:13 | 55.61856 | 12.65665 | 37 ft | 164 kts | 39° |
| 2026-04-24 19:13 | 55.62745 | 12.67021 | 538 ft | 172 kts | 39° |
| 2026-04-24 19:13 | 55.63667 | 12.68473 | 1302 ft | 187 kts | 38° |
| 2026-04-24 19:14 | 55.64718 | 12.70076 | 1886 ft | 212 kts | 35° |
| 2026-04-24 19:14 | 55.65891 | 12.71824 | 2885 ft | 226 kts | 36° |
| 2026-04-24 19:14 | 55.67061 | 12.73844 | 4021 ft | 237 kts | 40° |
| 2026-04-24 19:14 | 55.68195 | 12.75862 | 5668 ft | 228 kts | 43° |
| 2026-04-24 19:15 | 55.68923 | 12.78376 | 6939 ft | 240 kts | 72° |
| 2026-04-24 19:15 | 55.68951 | 12.81466 | 7065 ft | 267 kts | 100° |
| 2026-04-24 19:15 | 55.68068 | 12.84305 | 6964 ft | 261 kts | 135° |
| 2026-04-24 19:15 | 55.66656 | 12.86343 | 6981 ft | 278 kts | 139° |
| 2026-04-24 19:16 | 55.63832 | 12.90769 | 6974 ft | 265 kts | 139° |
| 2026-04-24 19:16 | 55.62471 | 12.92872 | 8137 ft | 259 kts | 139° |
| 2026-04-24 19:16 | 55.61090 | 12.95010 | 9175 ft | 269 kts | 138° |
| 2026-04-24 19:17 | 55.60149 | 12.96476 | 9693 ft | 279 kts | 138° |
| 2026-04-24 19:17 | 55.58645 | 12.98828 | 10342 ft | 295 kts | 138° |
| 2026-04-24 19:17 | 55.57056 | 13.01310 | 10921 ft | 314 kts | 138° |
| 2026-04-24 19:17 | 55.55372 | 13.03938 | 11466 ft | 333 kts | 138° |
| 2026-04-24 19:18 | 55.54778 | 13.04864 | 11657 ft | 340 kts | 139° |
| 2026-04-24 19:18 | 55.54309 | 13.05594 | 11805 ft | 344 kts | 139° |
| 2026-04-24 19:18 | 55.52466 | 13.08453 | 12472 ft | 358 kts | 139° |
| 2026-04-24 19:18 | 55.50566 | 13.11388 | 13254 ft | 367 kts | 139° |
| 2026-04-24 19:19 | 55.48623 | 13.14362 | 14157 ft | 372 kts | 140° |
| 2026-04-24 19:19 | 55.46652 | 13.17376 | 14934 ft | 378 kts | 140° |
| 2026-04-24 19:19 | 55.44654 | 13.20416 | 15794 ft | 382 kts | 140° |
| 2026-04-24 19:19 | 55.42626 | 13.23503 | 16600 ft | 387 kts | 140° |
| 2026-04-24 19:20 | 55.40579 | 13.26610 | 17408 ft | 392 kts | 140° |
| 2026-04-24 19:20 | 55.38495 | 13.29771 | 18203 ft | 397 kts | 140° |
| 2026-04-24 19:20 | 55.36399 | 13.32945 | 18883 ft | 401 kts | 140° |
| 2026-04-24 19:20 | 55.34269 | 13.36163 | 19544 ft | 406 kts | 140° |
| 2026-04-24 19:21 | 55.32110 | 13.39422 | 20233 ft | 410 kts | 140° |
| 2026-04-24 19:21 | 55.29933 | 13.42701 | 20919 ft | 415 kts | 140° |
| 2026-04-24 19:21 | 55.27731 | 13.46013 | 21584 ft | 419 kts | 140° |
| 2026-04-24 19:21 | 55.25505 | 13.49369 | 22238 ft | 424 kts | 138° |
| 2026-04-24 19:22 | 55.23487 | 13.53170 | 22896 ft | 428 kts | 130° |
| 2026-04-24 19:22 | 55.21530 | 13.57132 | 23512 ft | 433 kts | 130° |
| 2026-04-24 19:22 | 55.19544 | 13.61134 | 24052 ft | 437 kts | 130° |
| 2026-04-24 19:22 | 55.17548 | 13.65152 | 24606 ft | 440 kts | 130° |
| 2026-04-24 19:23 | 55.15532 | 13.69202 | 25153 ft | 443 kts | 130° |
| 2026-04-24 19:23 | 55.13501 | 13.73279 | 25646 ft | 447 kts | 131° |
| 2026-04-24 19:23 | 55.11299 | 13.77090 | 26144 ft | 448 kts | 144° |
| 2026-04-24 19:23 | 55.08750 | 13.80280 | 26649 ft | 450 kts | 145° |
| 2026-04-24 19:24 | 55.06231 | 13.83537 | 27076 ft | 455 kts | 145° |
| 2026-04-24 19:24 | 55.03722 | 13.86812 | 27647 ft | 455 kts | 145° |
| 2026-04-24 19:24 | 55.01149 | 13.90180 | 28081 ft | 460 kts | 145° |
| 2026-04-24 19:24 | 54.98586 | 13.93538 | 28522 ft | 462 kts | 145° |
| 2026-04-24 19:25 | 54.96041 | 13.96867 | 29013 ft | 464 kts | 145° |
| 2026-04-24 19:25 | 54.93449 | 14.00254 | 29419 ft | 468 kts | 145° |
| 2026-04-24 19:25 | 54.90841 | 14.03654 | 29875 ft | 470 kts | 146° |
| 2026-04-24 19:25 | 54.88186 | 14.07111 | 30262 ft | 473 kts | 146° |
| 2026-04-24 19:26 | 54.85583 | 14.10495 | 30630 ft | 475 kts | 146° |
| 2026-04-24 19:26 | 54.82979 | 14.13874 | 31007 ft | 476 kts | 146° |
| 2026-04-24 19:26 | 54.80324 | 14.17314 | 31369 ft | 478 kts | 146° |
| 2026-04-24 19:26 | 54.77651 | 14.20769 | 31732 ft | 480 kts | 146° |
| 2026-04-24 19:27 | 54.74960 | 14.24244 | 32084 ft | 483 kts | 146° |
| 2026-04-24 19:27 | 54.72267 | 14.27715 | 32430 ft | 485 kts | 146° |
| 2026-04-24 19:27 | 54.69564 | 14.31193 | 32777 ft | 487 kts | 146° |
| 2026-04-24 19:27 | 54.66836 | 14.34697 | 33110 ft | 489 kts | 146° |
| 2026-04-24 19:28 | 54.64093 | 14.38214 | 33452 ft | 491 kts | 146° |
| 2026-04-24 19:28 | 54.61345 | 14.41732 | 33775 ft | 493 kts | 146° |
| 2026-04-24 19:28 | 54.58582 | 14.45263 | 34083 ft | 495 kts | 146° |
| 2026-04-24 19:28 | 54.55801 | 14.48811 | 34378 ft | 497 kts | 146° |
| 2026-04-24 19:29 | 54.50255 | 14.55867 | 35188 ft | 494 kts | 146° |
| 2026-04-24 19:29 | 54.47497 | 14.59366 | 35586 ft | 493 kts | 146° |
| 2026-04-24 19:29 | 54.44744 | 14.62853 | 35968 ft | 491 kts | 146° |
| 2026-04-24 19:30 | 54.41986 | 14.66341 | 36287 ft | 492 kts | 146° |
| 2026-04-24 19:30 | 54.39241 | 14.69806 | 36708 ft | 489 kts | 146° |
| 2026-04-24 19:30 | 54.36500 | 14.73260 | 37003 ft | 489 kts | 146° |
| 2026-04-24 19:31 | 54.31002 | 14.80171 | 37013 ft | 489 kts | 146° |
| 2026-04-24 19:31 | 54.25514 | 14.87047 | 37003 ft | 488 kts | 146° |
| 2026-04-24 19:32 | 54.20027 | 14.93899 | 37011 ft | 488 kts | 146° |
| 2026-04-24 19:32 | 54.14545 | 15.00723 | 37084 ft | 488 kts | 147° |
| 2026-04-24 19:33 | 54.09056 | 15.07532 | 37073 ft | 488 kts | 147° |
| 2026-04-24 19:33 | 54.03568 | 15.14315 | 37010 ft | 488 kts | 147° |
| 2026-04-24 19:34 | 53.98072 | 15.21088 | 37057 ft | 488 kts | 147° |
| 2026-04-24 19:34 | 53.92555 | 15.27861 | 37011 ft | 490 kts | 147° |
| 2026-04-24 19:35 | 53.87020 | 15.34636 | 37022 ft | 490 kts | 147° |
| 2026-04-24 19:35 | 53.81487 | 15.41385 | 37028 ft | 490 kts | 147° |
| 2026-04-24 19:36 | 53.75983 | 15.48077 | 37013 ft | 490 kts | 147° |
| 2026-04-24 19:36 | 53.70441 | 15.54793 | 37020 ft | 490 kts | 147° |
| 2026-04-24 19:37 | 53.64828 | 15.61575 | 37001 ft | 492 kts | 147° |
| 2026-04-24 19:37 | 53.59291 | 15.68239 | 37014 ft | 494 kts | 147° |
| 2026-04-24 19:38 | 53.53736 | 15.74905 | 37016 ft | 493 kts | 147° |
| 2026-04-24 19:38 | 53.48088 | 15.81663 | 37014 ft | 497 kts | 147° |
| 2026-04-24 19:39 | 53.42548 | 15.88257 | 37011 ft | 488 kts | 147° |
| 2026-04-24 19:39 | 53.36946 | 15.94915 | 37004 ft | 491 kts | 148° |
| 2026-04-24 19:39 | 53.34188 | 15.98177 | 37008 ft | 480 kts | 148° |
| 2026-04-24 19:40 | 53.31503 | 16.01353 | 37018 ft | 470 kts | 148° |
| 2026-04-24 19:40 | 53.26243 | 16.07566 | 37018 ft | 458 kts | 148° |
| 2026-04-24 19:41 | 53.20993 | 16.13746 | 37007 ft | 473 kts | 148° |
| 2026-04-24 19:41 | 53.15515 | 16.20174 | 37001 ft | 489 kts | 148° |
| 2026-04-24 19:42 | 53.09888 | 16.26753 | 36930 ft | 500 kts | 148° |
| 2026-04-24 19:42 | 53.04208 | 16.33377 | 36946 ft | 497 kts | 148° |
| 2026-04-24 19:43 | 52.98589 | 16.39903 | 37283 ft | 492 kts | 148° |
| 2026-04-24 19:43 | 52.95777 | 16.43162 | 37493 ft | 492 kts | 148° |
| 2026-04-24 19:43 | 52.92978 | 16.46402 | 37746 ft | 489 kts | 148° |
| 2026-04-24 19:44 | 52.87446 | 16.52785 | 37772 ft | 489 kts | 148° |
| 2026-04-24 19:44 | 52.81788 | 16.59298 | 37719 ft | 501 kts | 148° |
| 2026-04-24 19:44 | 52.78924 | 16.62584 | 37980 ft | 500 kts | 148° |
| 2026-04-24 19:45 | 52.76056 | 16.65873 | 37850 ft | 501 kts | 148° |
| 2026-04-24 19:45 | 52.73197 | 16.69160 | 37166 ft | 500 kts | 148° |
| 2026-04-24 19:45 | 52.70365 | 16.72382 | 36999 ft | 488 kts | 148° |
| 2026-04-24 19:46 | 52.64751 | 16.78773 | 37005 ft | 491 kts | 148° |
| 2026-04-24 19:46 | 52.59118 | 16.85170 | 37016 ft | 492 kts | 148° |
| 2026-04-24 19:47 | 52.53530 | 16.91499 | 37018 ft | 492 kts | 148° |
| 2026-04-24 19:47 | 52.47847 | 16.97913 | 37016 ft | 492 kts | 148° |
| 2026-04-24 19:48 | 52.42204 | 17.04262 | 37020 ft | 492 kts | 148° |
| 2026-04-24 19:48 | 52.33727 | 17.13762 | 37026 ft | 492 kts | 148° |
| 2026-04-24 19:49 | 52.22403 | 17.26382 | 37031 ft | 493 kts | 148° |
| 2026-04-24 19:50 | 52.11107 | 17.38893 | 37029 ft | 493 kts | 148° |
| 2026-04-24 19:51 | 52.02555 | 17.48312 | 37037 ft | 492 kts | 148° |
| 2026-04-24 19:52 | 51.94048 | 17.57638 | 37042 ft | 492 kts | 148° |
| 2026-04-24 19:52 | 51.88365 | 17.63845 | 37042 ft | 492 kts | 148° |
| 2026-04-24 19:53 | 51.82722 | 17.69989 | 37039 ft | 492 kts | 148° |
| 2026-04-24 19:53 | 51.77032 | 17.76165 | 37194 ft | 491 kts | 148° |
| 2026-04-24 19:54 | 51.74358 | 17.79591 | 37138 ft | 495 kts | 135° |
| 2026-04-24 19:54 | 51.72031 | 17.83693 | 36686 ft | 495 kts | 135° |
| 2026-04-24 19:54 | 51.69587 | 17.87637 | 36754 ft | 497 kts | 136° |
| 2026-04-24 19:54 | 51.67131 | 17.91494 | 37216 ft | 493 kts | 137° |
| 2026-04-24 19:55 | 51.66297 | 17.92791 | 37108 ft | 495 kts | 137° |
| 2026-04-24 19:55 | 51.59665 | 18.02966 | 37041 ft | 497 kts | 137° |
| 2026-04-24 19:56 | 51.54659 | 18.10596 | 37043 ft | 497 kts | 137° |
| 2026-04-24 19:56 | 51.52149 | 18.14411 | 37187 ft | 496 kts | 137° |
| 2026-04-24 19:56 | 51.49618 | 18.18260 | 35877 ft | 512 kts | 137° |
| 2026-04-24 19:56 | 51.47037 | 18.22184 | 35263 ft | 510 kts | 137° |
| 2026-04-24 19:57 | 51.44474 | 18.26046 | 35244 ft | 501 kts | 137° |
| 2026-04-24 19:57 | 51.41958 | 18.29843 | 35894 ft | 494 kts | 137° |
| 2026-04-24 19:57 | 51.39452 | 18.33620 | 36213 ft | 495 kts | 137° |
| 2026-04-24 19:58 | 51.34451 | 18.41143 | 36233 ft | 489 kts | 137° |
| 2026-04-24 19:58 | 51.29530 | 18.48523 | 35764 ft | 480 kts | 137° |
| 2026-04-24 19:58 | 51.27087 | 18.52184 | 35097 ft | 485 kts | 137° |
| 2026-04-24 19:59 | 51.24597 | 18.55910 | 34456 ft | 495 kts | 137° |
| 2026-04-24 19:59 | 51.22073 | 18.59672 | 34033 ft | 498 kts | 137° |
| 2026-04-24 19:59 | 51.19654 | 18.63270 | 33674 ft | 491 kts | 137° |
| 2026-04-24 19:59 | 51.17184 | 18.66942 | 33195 ft | 478 kts | 137° |
| 2026-04-24 20:00 | 51.14747 | 18.70559 | 31160 ft | 486 kts | 137° |
| 2026-04-24 20:00 | 51.12168 | 18.74382 | 28756 ft | 519 kts | 137° |
| 2026-04-24 20:00 | 51.09559 | 18.78244 | 28069 ft | 502 kts | 137° |
| 2026-04-24 20:00 | 51.07024 | 18.81992 | 27099 ft | 493 kts | 137° |
| 2026-04-24 20:01 | 51.04547 | 18.85645 | 26245 ft | 480 kts | 137° |
| 2026-04-24 20:01 | 51.02197 | 18.89107 | 26690 ft | 435 kts | 137° |
| 2026-04-24 20:01 | 51.00054 | 18.92261 | 26686 ft | 413 kts | 137° |
| 2026-04-24 20:01 | 50.97978 | 18.95311 | 25874 ft | 417 kts | 137° |
| 2026-04-24 20:02 | 50.96519 | 18.97453 | 25236 ft | 425 kts | 137° |
| 2026-04-24 20:02 | 50.93592 | 19.01743 | 24058 ft | 432 kts | 137° |
| 2026-04-24 20:02 | 50.91419 | 19.04923 | 23204 ft | 427 kts | 137° |
| 2026-04-24 20:02 | 50.89937 | 19.07090 | 22315 ft | 431 kts | 137° |
| 2026-04-24 20:03 | 50.87782 | 19.10255 | 20365 ft | 436 kts | 137° |
| 2026-04-24 20:03 | 50.85654 | 19.13385 | 20492 ft | 402 kts | 138° |
| 2026-04-24 20:03 | 50.83622 | 19.16316 | 19977 ft | 391 kts | 138° |
| 2026-04-24 20:03 | 50.81629 | 19.19205 | 19373 ft | 384 kts | 138° |
| 2026-04-24 20:04 | 50.79685 | 19.22025 | 18920 ft | 374 kts | 137° |
| 2026-04-24 20:04 | 50.77796 | 19.24766 | 18488 ft | 363 kts | 137° |
| 2026-04-24 20:04 | 50.75967 | 19.27416 | 18055 ft | 353 kts | 137° |
| 2026-04-24 20:04 | 50.74178 | 19.30007 | 17619 ft | 344 kts | 137° |
| 2026-04-24 20:05 | 50.72423 | 19.32544 | 17209 ft | 343 kts | 137° |
| 2026-04-24 20:05 | 50.70656 | 19.35098 | 16797 ft | 345 kts | 137° |
| 2026-04-24 20:05 | 50.68880 | 19.37662 | 16392 ft | 346 kts | 137° |
| 2026-04-24 20:05 | 50.67105 | 19.40222 | 16002 ft | 346 kts | 137° |
| 2026-04-24 20:06 | 50.65330 | 19.42779 | 15597 ft | 345 kts | 137° |
| 2026-04-24 20:06 | 50.63676 | 19.45157 | 15194 ft | 345 kts | 137° |
| 2026-04-24 20:06 | 50.61906 | 19.47701 | 14775 ft | 344 kts | 137° |
| 2026-04-24 20:06 | 50.60134 | 19.50245 | 14347 ft | 345 kts | 137° |
| 2026-04-24 20:07 | 50.58957 | 19.51933 | 14082 ft | 345 kts | 137° |
| 2026-04-24 20:07 | 50.56586 | 19.55332 | 13499 ft | 345 kts | 137° |
| 2026-04-24 20:07 | 50.54838 | 19.57834 | 13059 ft | 344 kts | 137° |
| 2026-04-24 20:07 | 50.53072 | 19.60359 | 12634 ft | 343 kts | 138° |
| 2026-04-24 20:08 | 50.51309 | 19.62875 | 12212 ft | 342 kts | 138° |
| 2026-04-24 20:08 | 50.49554 | 19.65379 | 11791 ft | 341 kts | 138° |
| 2026-04-24 20:08 | 50.47800 | 19.67879 | 11372 ft | 339 kts | 138° |
| 2026-04-24 20:08 | 50.46052 | 19.70368 | 10956 ft | 338 kts | 138° |
| 2026-04-24 20:09 | 50.44316 | 19.72837 | 10537 ft | 338 kts | 138° |
| 2026-04-24 20:09 | 50.42574 | 19.75313 | 10133 ft | 336 kts | 138° |
| 2026-04-24 20:09 | 50.40857 | 19.77749 | 9830 ft | 331 kts | 138° |
| 2026-04-24 20:09 | 50.39154 | 19.80164 | 9360 ft | 330 kts | 139° |
| 2026-04-24 20:10 | 50.37449 | 19.82578 | 8918 ft | 329 kts | 139° |
| 2026-04-24 20:10 | 50.35757 | 19.84973 | 8504 ft | 327 kts | 139° |
| 2026-04-24 20:10 | 50.34079 | 19.87345 | 8095 ft | 323 kts | 139° |
| 2026-04-24 20:10 | 50.32448 | 19.89649 | 7747 ft | 307 kts | 139° |
| 2026-04-24 20:11 | 50.30904 | 19.91826 | 7399 ft | 293 kts | 139° |
| 2026-04-24 20:11 | 50.29413 | 19.93929 | 7019 ft | 282 kts | 139° |
| 2026-04-24 20:11 | 50.27979 | 19.95949 | 6659 ft | 273 kts | 139° |
| 2026-04-24 20:11 | 50.26596 | 19.97894 | 6310 ft | 263 kts | 139° |
| 2026-04-24 20:12 | 50.25263 | 19.99769 | 5963 ft | 255 kts | 139° |
| 2026-04-24 20:12 | 50.23970 | 20.01585 | 5754 ft | 242 kts | 139° |
| 2026-04-24 20:12 | 50.22756 | 20.03290 | 5637 ft | 227 kts | 139° |
| 2026-04-24 20:12 | 50.21610 | 20.04898 | 5496 ft | 217 kts | 139° |
| 2026-04-24 20:13 | 50.20395 | 20.06177 | 5304 ft | 207 kts | 164° |
| 2026-04-24 20:13 | 50.19044 | 20.06714 | 5062 ft | 196 kts | 170° |
| 2026-04-24 20:13 | 50.17724 | 20.07176 | 4697 ft | 192 kts | 171° |
| 2026-04-24 20:13 | 50.16439 | 20.07060 | 4237 ft | 183 kts | 209° |
| 2026-04-24 20:14 | 50.15358 | 20.06095 | 3891 ft | 178 kts | 216° |
| 2026-04-24 20:14 | 50.14326 | 20.05098 | 3514 ft | 169 kts | 216° |
| 2026-04-24 20:14 | 50.13342 | 20.04171 | 3119 ft | 163 kts | 216° |
| 2026-04-24 20:14 | 50.12403 | 20.03298 | 2956 ft | 148 kts | 218° |
| 2026-04-24 20:15 | 50.11529 | 20.02447 | 2993 ft | 150 kts | 225° |
| 2026-04-24 20:15 | 50.11020 | 20.01093 | 3065 ft | 145 kts | 251° |
| 2026-04-24 20:15 | 50.10660 | 19.99631 | 3268 ft | 144 kts | 258° |
| 2026-04-24 20:15 | 50.10437 | 19.98107 | 3308 ft | 144 kts | 262° |
| 2026-04-24 20:16 | 50.10257 | 19.96576 | 3186 ft | 144 kts | 263° |
| 2026-04-24 20:16 | 50.10069 | 19.95055 | 2912 ft | 141 kts | 262° |
| 2026-04-24 20:16 | 50.09864 | 19.93571 | 2642 ft | 139 kts | 262° |
| 2026-04-24 20:16 | 50.09649 | 19.92102 | 2419 ft | 139 kts | 262° |
| 2026-04-24 20:17 | 50.09438 | 19.90646 | 2193 ft | 137 kts | 262° |
| 2026-04-24 20:17 | 50.09050 | 19.87763 | 1816 ft | 137 kts | 261° |
| 2026-04-24 20:17 | 50.08848 | 19.86289 | 1614 ft | 138 kts | 260° |
| 2026-04-24 20:18 | 50.08704 | 19.85321 | 1477 ft | 139 kts | 259° |
| 2026-04-24 20:18 | 50.08431 | 19.83346 | 1273 ft | 143 kts | 260° |
| 2026-04-24 20:18 | 50.08231 | 19.81882 | 1088 ft | 135 kts | 259° |
| 2026-04-24 20:18 | 50.08038 | 19.80476 | 885 ft | 130 kts | 259° |
| 2026-04-24 20:19 | 50.07852 | 19.79127 | 795 ft | 118 kts | 259° |
| 2026-04-24 20:19 | 50.07712 | 19.78069 | 796 ft | 71 kts | 257° |
| 2026-04-24 20:19 | 50.07634 | 19.77526 | 799 ft | 36 kts | 259° |
| 2026-04-24 20:19 | 50.07590 | 19.77188 | 803 ft | 27 kts | 258° |
| 2026-04-24 20:20 | 50.07550 | 19.76915 | 804 ft | 20 kts | 253° |
| 2026-04-24 20:20 | 50.07456 | 19.76856 | 803 ft | 18 kts | 169° |
| 2026-04-24 20:20 | 50.07341 | 19.76896 | 802 ft | 15 kts | 160° |
| 2026-04-24 20:20 | 50.07314 | 19.77019 | 802 ft | 13 kts | 76° |
| 2026-04-24 20:21 | 50.07332 | 19.77150 | 801 ft | 12 kts | 82° |
| 2026-04-24 20:21 | 50.07335 | 19.77279 | 801 ft | 12 kts | 91° |
| 2026-04-24 20:21 | 50.07353 | 19.77375 | 800 ft | 8 kts | 62° |
| 2026-04-24 20:21 | 50.07370 | 19.77456 | 800 ft | 10 kts | 76° |
| 2026-04-24 20:22 | 50.07393 | 19.77615 | 799 ft | 19 kts | 79° |
| 2026-04-24 20:22 | 50.07420 | 19.77817 | 799 ft | 19 kts | 76° |
| 2026-04-24 20:22 | 50.07449 | 19.78009 | 798 ft | 18 kts | 77° |
| 2026-04-24 20:22 | 50.07476 | 19.78193 | 797 ft | 17 kts | 77° |
| 2026-04-24 20:23 | 50.07503 | 19.78368 | 797 ft | 16 kts | 77° |
| 2026-04-24 20:23 | 50.07527 | 19.78534 | 796 ft | 15 kts | 79° |
| 2026-04-24 20:23 | 50.07547 | 19.78692 | 796 ft | 14 kts | 78° |
| 2026-04-24 20:23 | 50.07566 | 19.78841 | 795 ft | 14 kts | 78° |
| 2026-04-24 20:24 | 50.07585 | 19.78983 | 794 ft | 13 kts | 78° |
| 2026-04-24 20:24 | 50.07602 | 19.79117 | 794 ft | 12 kts | 78° |
| 2026-04-24 20:24 | 50.07619 | 19.79243 | 793 ft | 12 kts | 77° |
| 2026-04-24 20:24 | 50.07640 | 19.79389 | 793 ft | 15 kts | 77° |
| 2026-04-24 20:25 | 50.07655 | 19.79493 | 793 ft | 10 kts | 77° |
| 2026-04-24 20:25 | 50.07673 | 19.79623 | 792 ft | 15 kts | 77° |
| 2026-04-24 20:25 | 50.07699 | 19.79801 | 791 ft | 19 kts | 77° |
| 2026-04-24 20:25 | 50.07730 | 19.80013 | 791 ft | 22 kts | 77° |
| 2026-04-24 20:26 | 50.07761 | 19.80216 | 790 ft | 10 kts | 76° |
| 2026-04-24 20:26 | 50.07768 | 19.80325 | 790 ft | 11 kts | 112° |
| 2026-04-24 20:26 | 50.07696 | 19.80372 | 789 ft | 13 kts | 188° |
| 2026-04-24 20:26 | 50.07654 | 19.80251 | 790 ft | 15 kts | 267° |
| 2026-04-24 20:27 | 50.07699 | 19.80173 | 790 ft | 0 kts | 346° |